sensor_id;sensor_type;location;lat;lon;timestamp;pressure;altitude;pressure_sealevel;temperature;humidity
70445;BME280;57902;49.638;11.070;2023-02-15T00:01:52;99803.91;;;-0.41;100.00
70445;BME280;57902;49.638;11.070;2023-02-15T00:04:21;99808.25;;;-0.39;100.00
70445;BME280;57902;49.638;11.070;2023-02-15T00:06:48;99796.41;;;-0.40;100.00
70445;BME280;57902;49.638;11.070;2023-02-15T00:09:15;99793.72;;;-0.43;100.00
70445;BME280;57902;49.638;11.070;2023-02-15T00:11:41;99796.19;;;-0.44;100.00
70445;BME280;57902;49.638;11.070;2023-02-15T00:14:19;99796.03;;;-0.49;100.00
70445;BME280;57902;49.638;11.070;2023-02-15T00:16:47;99795.41;;;-0.43;100.00
70445;BME280;57902;49.638;11.070;2023-02-15T00:19:15;99796.03;;;-0.49;100.00
70445;BME280;57902;49.638;11.070;2023-02-15T00:21:42;99795.28;;;-0.46;100.00
70445;BME280;57902;49.638;11.070;2023-02-15T00:24:11;99793.66;;;-0.44;100.00
70445;BME280;57902;49.638;11.070;2023-02-15T00:26:40;99787.69;;;-0.46;100.00
70445;BME280;57902;49.638;11.070;2023-02-15T00:29:07;99785.03;;;-0.49;100.00
70445;BME280;57902;49.638;11.070;2023-02-15T00:31:35;99788.97;;;-0.56;100.00
70445;BME280;57902;49.638;11.070;2023-02-15T00:34:04;99789.09;;;-0.53;100.00
70445;BME280;57902;49.638;11.070;2023-02-15T00:36:30;99787.41;;;-0.54;100.00
70445;BME280;57902;49.638;11.070;2023-02-15T00:38:57;99791.34;;;-0.61;100.00
70445;BME280;57902;49.638;11.070;2023-02-15T00:41:24;99788.19;;;-0.55;100.00
70445;BME280;57902;49.638;11.070;2023-02-15T00:43:51;99802.47;;;-0.57;100.00
70445;BME280;57902;49.638;11.070;2023-02-15T00:46:17;99790.25;;;-0.67;100.00
70445;BME280;57902;49.638;11.070;2023-02-15T00:48:44;99795.63;;;-0.60;100.00
70445;BME280;57902;49.638;11.070;2023-02-15T00:51:10;99794.53;;;-0.65;100.00
70445;BME280;57902;49.638;11.070;2023-02-15T00:53:36;99789.59;;;-0.62;100.00
70445;BME280;57902;49.638;11.070;2023-02-15T00:56:03;99784.31;;;-0.68;100.00
70445;BME280;57902;49.638;11.070;2023-02-15T00:58:30;99779.13;;;-0.71;100.00
70445;BME280;57902;49.638;11.070;2023-02-15T01:01:06;99782.31;;;-0.75;100.00
70445;BME280;57902;49.638;11.070;2023-02-15T01:03:33;99775.56;;;-0.76;100.00
70445;BME280;57902;49.638;11.070;2023-02-15T01:06:00;99767.13;;;-0.75;100.00
70445;BME280;57902;49.638;11.070;2023-02-15T01:08:27;99775.63;;;-0.75;100.00
70445;BME280;57902;49.638;11.070;2023-02-15T01:10:54;99773.69;;;-0.80;100.00
70445;BME280;57902;49.638;11.070;2023-02-15T01:13:21;99768.41;;;-0.86;100.00
70445;BME280;57902;49.638;11.070;2023-02-15T01:15:54;99769.97;;;-0.89;100.00
70445;BME280;57902;49.638;11.070;2023-02-15T01:18:21;99774.44;;;-0.83;100.00
70445;BME280;57902;49.638;11.070;2023-02-15T01:20:49;99770.09;;;-0.85;100.00
70445;BME280;57902;49.638;11.070;2023-02-15T01:23:15;99770.16;;;-0.84;100.00
70445;BME280;57902;49.638;11.070;2023-02-15T01:25:42;99769.31;;;-0.84;100.00
70445;BME280;57902;49.638;11.070;2023-02-15T01:28:08;99766.66;;;-0.88;100.00
70445;BME280;57902;49.638;11.070;2023-02-15T01:30:35;99764.78;;;-0.92;100.00
70445;BME280;57902;49.638;11.070;2023-02-15T01:33:02;99759.84;;;-0.89;100.00
70445;BME280;57902;49.638;11.070;2023-02-15T01:35:29;99762.22;;;-0.93;100.00
70445;BME280;57902;49.638;11.070;2023-02-15T01:37:56;99757.09;;;-0.95;100.00
70445;BME280;57902;49.638;11.070;2023-02-15T01:40:24;99761.59;;;-0.88;100.00
70445;BME280;57902;49.638;11.070;2023-02-15T01:42:54;99757.16;;;-0.93;100.00
70445;BME280;57902;49.638;11.070;2023-02-15T01:50:43;99740.22;;;-0.94;100.00
70445;BME280;57902;49.638;11.070;2023-02-15T01:56:23;99730.97;;;-0.94;100.00
70445;BME280;57902;49.638;11.070;2023-02-15T01:58:53;99734.72;;;-0.84;100.00
70445;BME280;57902;49.638;11.070;2023-02-15T02:01:21;99724.00;;;-0.99;100.00
70445;BME280;57902;49.638;11.070;2023-02-15T02:04:17;99728.06;;;-1.03;100.00
70445;BME280;57902;49.638;11.070;2023-02-15T02:06:46;99725.41;;;-1.06;100.00
70445;BME280;57902;49.638;11.070;2023-02-15T02:09:14;99722.09;;;-1.05;100.00
70445;BME280;57902;49.638;11.070;2023-02-15T02:11:41;99718.63;;;-1.07;100.00
70445;BME280;57902;49.638;11.070;2023-02-15T02:14:10;99714.44;;;-1.07;100.00
70445;BME280;57902;49.638;11.070;2023-02-15T02:22:23;99712.25;;;-0.97;100.00
70445;BME280;57902;49.638;11.070;2023-02-15T02:28:12;99707.19;;;-0.97;100.00
70445;BME280;57902;49.638;11.070;2023-02-15T02:36:15;99717.69;;;-1.09;100.00
70445;BME280;57902;49.638;11.070;2023-02-15T02:39:12;99711.84;;;-1.08;100.00
70445;BME280;57902;49.638;11.070;2023-02-15T02:42:31;99703.31;;;-1.10;100.00
70445;BME280;57902;49.638;11.070;2023-02-15T02:44:55;99706.03;;;-1.06;100.00
70445;BME280;57902;49.638;11.070;2023-02-15T02:47:50;99707.00;;;-1.02;100.00
70445;BME280;57902;49.638;11.070;2023-02-15T02:50:22;99710.84;;;-0.91;100.00
70445;BME280;57902;49.638;11.070;2023-02-15T02:52:51;99706.41;;;-0.96;100.00
70445;BME280;57902;49.638;11.070;2023-02-15T02:58:05;99702.69;;;-1.04;100.00
70445;BME280;57902;49.638;11.070;2023-02-15T03:00:50;99704.19;;;-1.10;100.00
70445;BME280;57902;49.638;11.070;2023-02-15T03:03:27;99699.06;;;-1.11;100.00
70445;BME280;57902;49.638;11.070;2023-02-15T03:06:00;99693.06;;;-1.13;100.00
70445;BME280;57902;49.638;11.070;2023-02-15T03:08:34;99687.88;;;-1.16;100.00
70445;BME280;57902;49.638;11.070;2023-02-15T03:11:04;99685.28;;;-1.18;100.00
70445;BME280;57902;49.638;11.070;2023-02-15T03:13:31;99688.44;;;-1.24;100.00
70445;BME280;57902;49.638;11.070;2023-02-15T03:16:00;99687.53;;;-1.26;100.00
70445;BME280;57902;49.638;11.070;2023-02-15T03:18:48;99683.94;;;-1.31;100.00
70445;BME280;57902;49.638;11.070;2023-02-15T03:21:47;99693.38;;;-1.27;100.00
70445;BME280;57902;49.638;11.070;2023-02-15T03:24:28;99693.13;;;-1.33;100.00
70445;BME280;57902;49.638;11.070;2023-02-15T03:26:56;99699.25;;;-1.28;100.00
70445;BME280;57902;49.638;11.070;2023-02-15T03:29:25;99691.66;;;-1.28;100.00
70445;BME280;57902;49.638;11.070;2023-02-15T03:32:00;99694.19;;;-1.28;100.00
70445;BME280;57902;49.638;11.070;2023-02-15T03:34:28;99687.16;;;-1.35;100.00
70445;BME280;57902;49.638;11.070;2023-02-15T03:37:24;99683.94;;;-1.31;100.00
70445;BME280;57902;49.638;11.070;2023-02-15T03:39:56;99692.28;;;-1.33;100.00
70445;BME280;57902;49.638;11.070;2023-02-15T03:42:47;99693.13;;;-1.33;100.00
70445;BME280;57902;49.638;11.070;2023-02-15T03:45:22;99699.09;;;-1.31;100.00
70445;BME280;57902;49.638;11.070;2023-02-15T03:47:52;99700.72;;;-1.33;100.00
70445;BME280;57902;49.638;11.070;2023-02-15T03:50:26;99693.97;;;-1.32;100.00
70445;BME280;57902;49.638;11.070;2023-02-15T03:53:15;99693.31;;;-1.28;100.00
70445;BME280;57902;49.638;11.070;2023-02-15T03:55:47;99700.13;;;-1.27;100.00
70445;BME280;57902;49.638;11.070;2023-02-15T03:58:13;99696.91;;;-1.23;100.00
70445;BME280;57902;49.638;11.070;2023-02-15T04:01:03;99708.50;;;-1.28;100.00
70445;BME280;57902;49.638;11.070;2023-02-15T04:03:56;99703.19;;;-1.34;100.00
70445;BME280;57902;49.638;11.070;2023-02-15T04:06:24;99700.59;;;-1.36;100.00
70445;BME280;57902;49.638;11.070;2023-02-15T04:08:50;99706.50;;;-1.35;100.00
70445;BME280;57902;49.638;11.070;2023-02-15T04:11:35;99704.66;;;-1.39;100.00
70445;BME280;57902;49.638;11.070;2023-02-15T04:14:02;99704.88;;;-1.35;100.00
70445;BME280;57902;49.638;11.070;2023-02-15T04:16:48;99701.38;;;-1.37;100.00
70445;BME280;57902;49.638;11.070;2023-02-15T04:19:16;99709.81;;;-1.38;100.00
70445;BME280;57902;49.638;11.070;2023-02-15T04:22:01;99710.78;;;-1.34;100.00
70445;BME280;57902;49.638;11.070;2023-02-15T04:24:45;99709.03;;;-1.35;100.00
70445;BME280;57902;49.638;11.070;2023-02-15T04:27:30;99709.09;;;-1.34;100.00
70445;BME280;57902;49.638;11.070;2023-02-15T04:29:57;99704.09;;;-1.32;100.00
70445;BME280;57902;49.638;11.070;2023-02-15T04:32:24;99709.09;;;-1.34;100.00
70445;BME280;57902;49.638;11.070;2023-02-15T04:34:51;99710.06;;;-1.32;100.00
70445;BME280;57902;49.638;11.070;2023-02-15T04:37:17;99700.59;;;-1.36;100.00
70445;BME280;57902;49.638;11.070;2023-02-15T04:39:44;99709.22;;;-1.31;100.00
70445;BME280;57902;49.638;11.070;2023-02-15T04:42:10;99705.78;;;-1.33;100.00
70445;BME280;57902;49.638;11.070;2023-02-15T04:44:37;99705.06;;;-1.30;100.00
70445;BME280;57902;49.638;11.070;2023-02-15T04:47:03;99700.59;;;-1.36;100.00
70445;BME280;57902;49.638;11.070;2023-02-15T04:49:30;99697.16;;;-1.38;100.00
70445;BME280;57902;49.638;11.070;2023-02-15T04:51:56;99692.94;;;-1.37;100.00
70445;BME280;57902;49.638;11.070;2023-02-15T04:54:23;99702.06;;;-1.41;100.00
70445;BME280;57902;49.638;11.070;2023-02-15T04:56:49;99703.91;;;-1.37;100.00
70445;BME280;57902;49.638;11.070;2023-02-15T04:59:16;99696.16;;;-1.42;100.00
70445;BME280;57902;49.638;11.070;2023-02-15T05:01:42;99687.66;;;-1.44;100.00
70445;BME280;57902;49.638;11.070;2023-02-15T05:04:09;99694.47;;;-1.41;100.00
70445;BME280;57902;49.638;11.070;2023-02-15T05:06:35;99682.66;;;-1.42;100.00
70445;BME280;57902;49.638;11.070;2023-02-15T05:09:02;99683.94;;;-1.52;100.00
70445;BME280;57902;49.638;11.070;2023-02-15T05:11:28;99678.00;;;-1.52;100.00
70445;BME280;57902;49.638;11.070;2023-02-15T05:13:55;99676.22;;;-1.55;100.00
70445;BME280;57902;49.638;11.070;2023-02-15T05:16:21;99667.84;;;-1.54;100.00
70445;BME280;57902;49.638;11.070;2023-02-15T05:18:48;99674.66;;;-1.51;100.00
70445;BME280;57902;49.638;11.070;2023-02-15T05:21:15;99670.66;;;-1.46;100.00
70445;BME280;57902;49.638;11.070;2023-02-15T05:23:42;99673.75;;;-1.53;100.00
70445;BME280;57902;49.638;11.070;2023-02-15T05:26:19;99675.72;;;-1.46;100.00
70445;BME280;57902;49.638;11.070;2023-02-15T05:29:05;99667.78;;;-1.55;100.00
70445;BME280;57902;49.638;11.070;2023-02-15T05:31:32;99672.00;;;-1.54;100.00
70445;BME280;57902;49.638;11.070;2023-02-15T05:33:59;99661.84;;;-1.56;100.00
70445;BME280;57902;49.638;11.070;2023-02-15T05:36:26;99670.31;;;-1.55;100.00
70445;BME280;57902;49.638;11.070;2023-02-15T05:38:52;99668.56;;;-1.56;100.00
70445;BME280;57902;49.638;11.070;2023-02-15T05:41:18;99669.41;;;-1.56;100.00
70445;BME280;57902;49.638;11.070;2023-02-15T05:43:45;99672.50;;;-1.63;100.00
70445;BME280;57902;49.638;11.070;2023-02-15T05:46:12;99662.59;;;-1.59;100.00
70445;BME280;57902;49.638;11.070;2023-02-15T05:48:39;99658.09;;;-1.66;100.00
70445;BME280;57902;49.638;11.070;2023-02-15T05:51:07;99652.13;;;-1.66;100.00
70445;BME280;57902;49.638;11.070;2023-02-15T05:53:36;99653.16;;;-1.63;100.00
70445;BME280;57902;49.638;11.070;2023-02-15T05:56:04;99646.53;;;-1.59;100.00
70445;BME280;57902;49.638;11.070;2023-02-15T05:58:41;99653.16;;;-1.63;100.00
70445;BME280;57902;49.638;11.070;2023-02-15T06:01:16;99653.28;;;-1.60;100.00
70445;BME280;57902;49.638;11.070;2023-02-15T06:03:44;99656.53;;;-1.62;100.00
70445;BME280;57902;49.638;11.070;2023-02-15T06:06:10;99653.09;;;-1.64;100.00
70445;BME280;57902;49.638;11.070;2023-02-15T06:08:37;99652.13;;;-1.66;100.00
70445;BME280;57902;49.638;11.070;2023-02-15T06:11:04;99650.38;;;-1.69;100.00
70445;BME280;57902;49.638;11.070;2023-02-15T06:13:31;99647.03;;;-1.68;100.00
70445;BME280;57902;49.638;11.070;2023-02-15T06:15:58;99648.16;;;-1.61;100.00
70445;BME280;57902;49.638;11.070;2023-02-15T06:18:25;99650.75;;;-1.60;100.00
70445;BME280;57902;49.638;11.070;2023-02-15T06:20:52;99651.59;;;-1.59;100.00
70445;BME280;57902;49.638;11.070;2023-02-15T06:23:18;99654.19;;;-1.58;100.00
70445;BME280;57902;49.638;11.070;2023-02-15T06:25:46;99662.72;;;-1.55;100.00
70445;BME280;57902;49.638;11.070;2023-02-15T06:28:13;99661.72;;;-1.59;100.00
70445;BME280;57902;49.638;11.070;2023-02-15T06:30:39;99660.84;;;-1.60;100.00
70445;BME280;57902;49.638;11.070;2023-02-15T06:33:06;99669.34;;;-1.58;100.00
70445;BME280;57902;49.638;11.070;2023-02-15T06:35:32;99669.41;;;-1.56;100.00
70445;BME280;57902;49.638;11.070;2023-02-15T06:37:59;99677.81;;;-1.57;100.00
70445;BME280;57902;49.638;11.070;2023-02-15T06:40:25;99677.00;;;-1.56;100.00
70445;BME280;57902;49.638;11.070;2023-02-15T06:42:52;99671.63;;;-1.64;100.00
70445;BME280;57902;49.638;11.070;2023-02-15T06:45:18;99672.56;;;-1.62;100.00
70445;BME280;57902;49.638;11.070;2023-02-15T06:47:45;99668.63;;;-1.55;100.00
70445;BME280;57902;49.638;11.070;2023-02-15T06:50:11;99679.66;;;-1.53;100.00
70445;BME280;57902;49.638;11.070;2023-02-15T06:52:38;99678.69;;;-1.56;100.00
70445;BME280;57902;49.638;11.070;2023-02-15T06:55:04;99681.28;;;-1.55;100.00
70445;BME280;57902;49.638;11.070;2023-02-15T06:57:31;99677.63;;;-1.62;100.00
70445;BME280;57902;49.638;11.070;2023-02-15T06:59:59;99674.41;;;-1.58;100.00
70445;BME280;57902;49.638;11.070;2023-02-15T07:02:25;99673.63;;;-1.56;100.00
70445;BME280;57902;49.638;11.070;2023-02-15T07:04:55;99672.06;;;-1.53;100.00
70445;BME280;57902;49.638;11.070;2023-02-15T07:07:22;99669.47;;;-1.54;100.00
70445;BME280;57902;49.638;11.070;2023-02-15T07:09:49;99667.78;;;-1.55;100.00
70445;BME280;57902;49.638;11.070;2023-02-15T07:12:15;99667.28;;;-1.47;100.00
70445;BME280;57902;49.638;11.070;2023-02-15T07:15:00;99665.56;;;-1.48;100.00
70445;BME280;57902;49.638;11.070;2023-02-15T07:17:27;99665.72;;;-1.43;100.00
70445;BME280;57902;49.638;11.070;2023-02-15T07:20:09;99674.19;;;-1.43;100.00
70445;BME280;57902;49.638;11.070;2023-02-15T07:22:36;99675.06;;;-1.42;100.00
70445;BME280;57902;49.638;11.070;2023-02-15T07:25:04;99673.09;;;-1.49;100.00
70445;BME280;57902;49.638;11.070;2023-02-15T07:27:31;99676.66;;;-1.44;100.00
70445;BME280;57902;49.638;11.070;2023-02-15T07:29:58;99674.66;;;-1.51;100.00
70445;BME280;57902;49.638;11.070;2023-02-15T07:32:29;99663.94;;;-1.46;100.00
70445;BME280;57902;49.638;11.070;2023-02-15T07:34:56;99675.66;;;-1.48;100.00
70445;BME280;57902;49.638;11.070;2023-02-15T07:37:23;99664.47;;;-1.53;100.00
70445;BME280;57902;49.638;11.070;2023-02-15T07:39:50;99669.47;;;-1.54;100.00
70445;BME280;57902;49.638;11.070;2023-02-15T07:42:16;99665.97;;;-1.58;100.00
70445;BME280;57902;49.638;11.070;2023-02-15T07:44:44;99659.31;;;-1.56;100.00
70445;BME280;57902;49.638;11.070;2023-02-15T07:47:10;99662.91;;;-1.51;100.00
70445;BME280;57902;49.638;11.070;2023-02-15T07:49:38;99662.78;;;-1.54;100.00
70445;BME280;57902;49.638;11.070;2023-02-15T07:52:04;99660.91;;;-1.58;100.00
70445;BME280;57902;49.638;11.070;2023-02-15T07:54:31;99663.56;;;-1.55;100.00
70445;BME280;57902;49.638;11.070;2023-02-15T07:56:57;99663.69;;;-1.52;100.00
70445;BME280;57902;49.638;11.070;2023-02-15T07:59:23;99665.44;;;-1.51;100.00
70445;BME280;57902;49.638;11.070;2023-02-15T08:01:50;99661.09;;;-1.53;100.00
70445;BME280;57902;49.638;11.070;2023-02-15T08:04:19;99667.84;;;-1.54;100.00
70445;BME280;57902;49.638;11.070;2023-02-15T08:06:45;99666.41;;;-1.47;100.00
70445;BME280;57902;49.638;11.070;2023-02-15T08:09:12;99671.97;;;-1.35;100.00
70445;BME280;57902;49.638;11.070;2023-02-15T08:11:38;99676.34;;;-1.31;100.00
70445;BME280;57902;49.638;11.070;2023-02-15T08:14:11;99678.13;;;-1.28;100.00
70445;BME280;57902;49.638;11.070;2023-02-15T08:16:45;99678.38;;;-1.22;100.00
70445;BME280;57902;49.638;11.070;2023-02-15T08:19:22;99677.56;;;-1.21;100.00
70445;BME280;57902;49.638;11.070;2023-02-15T08:21:50;99673.53;;;-1.17;100.00
70445;BME280;57902;49.638;11.070;2023-02-15T08:24:19;99677.75;;;-1.16;100.00
70445;BME280;57902;49.638;11.070;2023-02-15T08:26:47;99676.06;;;-1.17;100.00
70445;BME280;57902;49.638;11.070;2023-02-15T08:29:15;99672.03;;;-1.12;100.00
70445;BME280;57902;49.638;11.070;2023-02-15T08:31:43;99681.34;;;-1.11;100.00
70445;BME280;57902;49.638;11.070;2023-02-15T08:34:13;99675.66;;;-1.06;100.00
70445;BME280;57902;49.638;11.070;2023-02-15T08:36:41;99673.09;;;-1.07;100.00
70445;BME280;57902;49.638;11.070;2023-02-15T08:39:08;99673.88;;;-1.08;100.00
70445;BME280;57902;49.638;11.070;2023-02-15T08:41:36;99674.34;;;-0.96;100.00
70445;BME280;57902;49.638;11.070;2023-02-15T08:44:06;99676.06;;;-0.95;100.00
70445;BME280;57902;49.638;11.070;2023-02-15T08:46:35;99679.28;;;-0.99;100.00
70445;BME280;57902;49.638;11.070;2023-02-15T08:49:02;99676.88;;;-0.96;100.00
70445;BME280;57902;49.638;11.070;2023-02-15T08:51:32;99671.19;;;-0.90;100.00
70445;BME280;57902;49.638;11.070;2023-02-15T08:54:03;99669.47;;;-0.91;100.00
70445;BME280;57902;49.638;11.070;2023-02-15T08:56:34;99670.22;;;-0.94;100.00
70445;BME280;57902;49.638;11.070;2023-02-15T08:59:01;99667.97;;;-0.86;100.00
70445;BME280;57902;49.638;11.070;2023-02-15T09:01:30;99666.25;;;-0.87;100.00
70445;BME280;57902;49.638;11.070;2023-02-15T09:03:58;99665.72;;;-0.78;100.00
70445;BME280;57902;49.638;11.070;2023-02-15T09:06:25;99669.16;;;-0.78;100.00
70445;BME280;57902;49.638;11.070;2023-02-15T09:08:53;99664.88;;;-0.79;100.00
70445;BME280;57902;49.638;11.070;2023-02-15T09:11:25;99663.31;;;-0.75;100.00
70445;BME280;57902;49.638;11.070;2023-02-15T09:13:56;99661.91;;;-0.68;100.00
70445;BME280;57902;49.638;11.070;2023-02-15T09:16:24;99666.38;;;-0.61;100.00
70445;BME280;57902;49.638;11.070;2023-02-15T09:18:51;99674.25;;;-0.54;100.00
70445;BME280;57902;49.638;11.070;2023-02-15T09:21:20;99663.97;;;-0.58;100.00
70445;BME280;57902;49.638;11.070;2023-02-15T09:23:50;99668.28;;;-0.56;100.00
70445;BME280;57902;49.638;11.070;2023-02-15T09:26:19;99666.78;;;-0.50;100.00
70445;BME280;57902;49.638;11.070;2023-02-15T09:28:47;99661.19;;;-0.42;100.00
70445;BME280;57902;49.638;11.070;2023-02-15T09:31:19;99663.66;;;-0.43;100.00
70445;BME280;57902;49.638;11.070;2023-02-15T09:33:47;99676.97;;;-0.49;100.00
70445;BME280;57902;49.638;11.070;2023-02-15T09:36:22;99668.84;;;-0.40;100.00
70445;BME280;57902;49.638;11.070;2023-02-15T09:38:57;99665.50;;;-0.39;100.00
70445;BME280;57902;49.638;11.070;2023-02-15T09:58:53;99676.91;;;-0.04;100.00
70445;BME280;57902;49.638;11.070;2023-02-15T10:04:25;99673.28;;;0.14;100.00
70445;BME280;57902;49.638;11.070;2023-02-15T10:12:37;99667.66;;;0.23;100.00
70445;BME280;57902;49.638;11.070;2023-02-15T10:26:22;99658.13;;;0.67;100.00
70445;BME280;57902;49.638;11.070;2023-02-15T10:34:18;99641.72;;;0.83;100.00
70445;BME280;57902;49.638;11.070;2023-02-15T10:39:46;99645.91;;;1.10;100.00
70445;BME280;57902;49.638;11.070;2023-02-15T10:42:40;99641.50;;;1.04;100.00
70445;BME280;57902;49.638;11.070;2023-02-15T10:48:12;99633.28;;;1.40;98.58
70445;BME280;57902;49.638;11.070;2023-02-15T10:50:53;99631.91;;;1.22;99.19
70445;BME280;57902;49.638;11.070;2023-02-15T11:07:32;99583.53;;;1.80;96.00
70445;BME280;57902;49.638;11.070;2023-02-15T11:10:11;99584.38;;;1.79;93.67
70445;BME280;57902;49.638;11.070;2023-02-15T11:12:44;99584.28;;;1.76;95.24
70445;BME280;57902;49.638;11.070;2023-02-15T11:15:19;99583.94;;;1.64;98.18
70445;BME280;57902;49.638;11.070;2023-02-15T11:17:57;99581.31;;;1.61;98.52
70445;BME280;57902;49.638;11.070;2023-02-15T11:20:37;99589.03;;;1.64;97.10
70445;BME280;57902;49.638;11.070;2023-02-15T11:23:13;99587.16;;;1.88;96.92
70445;BME280;57902;49.638;11.070;2023-02-15T11:28:38;99581.78;;;2.11;95.70
70445;BME280;57902;49.638;11.070;2023-02-15T11:31:18;99577.81;;;2.21;94.45
70445;BME280;57902;49.638;11.070;2023-02-15T11:33:55;99570.34;;;2.28;95.51
70445;BME280;57902;49.638;11.070;2023-02-15T11:36:27;99562.16;;;2.40;95.40
70445;BME280;57902;49.638;11.070;2023-02-15T11:39:04;99563.44;;;2.59;93.86
70445;BME280;57902;49.638;11.070;2023-02-15T11:41:37;99568.94;;;2.76;92.46
70445;BME280;57902;49.638;11.070;2023-02-15T11:44:17;99576.56;;;2.76;90.66
70445;BME280;57902;49.638;11.070;2023-02-15T11:46:46;99566.34;;;2.75;91.23
70445;BME280;57902;49.638;11.070;2023-02-15T11:49:31;99572.28;;;2.75;91.22
70445;BME280;57902;49.638;11.070;2023-02-15T11:52:05;99567.38;;;2.83;90.36
70445;BME280;57902;49.638;11.070;2023-02-15T11:54:41;99560.72;;;2.90;91.13
70445;BME280;57902;49.638;11.070;2023-02-15T11:57:17;99559.16;;;2.96;89.71
70445;BME280;57902;49.638;11.070;2023-02-15T11:59:57;99547.19;;;2.91;90.91
70445;BME280;57902;49.638;11.070;2023-02-15T12:02:26;99544.66;;;2.92;91.66
70445;BME280;57902;49.638;11.070;2023-02-15T12:04:59;99542.75;;;2.82;91.46
70445;BME280;57902;49.638;11.070;2023-02-15T12:07:41;99536.16;;;2.93;91.26
70445;BME280;57902;49.638;11.070;2023-02-15T12:10:20;99543.44;;;3.14;90.18
70445;BME280;57902;49.638;11.070;2023-02-15T12:12:48;99532.59;;;3.25;88.81
70445;BME280;57902;49.638;11.070;2023-02-15T12:15:34;99530.06;;;3.26;89.86
70445;BME280;57902;49.638;11.070;2023-02-15T12:18:01;99526.84;;;3.35;88.06
70445;BME280;57902;49.638;11.070;2023-02-15T12:20:31;99524.28;;;3.35;89.23
70445;BME280;57902;49.638;11.070;2023-02-15T12:23:03;99511.50;;;3.32;90.00
70445;BME280;57902;49.638;11.070;2023-02-15T12:25:36;99512.31;;;3.31;90.17
70445;BME280;57902;49.638;11.070;2023-02-15T12:28:05;99504.69;;;3.32;89.23
70445;BME280;57902;49.638;11.070;2023-02-15T12:30:43;99496.25;;;3.35;88.83
70445;BME280;57902;49.638;11.070;2023-02-15T12:33:35;99495.56;;;3.44;89.87
70445;BME280;57902;49.638;11.070;2023-02-15T12:36:24;99492.44;;;3.59;88.54
70445;BME280;57902;49.638;11.070;2023-02-15T12:44:27;99496.41;;;3.92;86.09
70445;BME280;57902;49.638;11.070;2023-02-15T12:47:21;99493.91;;;3.96;86.34
70445;BME280;57902;49.638;11.070;2023-02-15T12:50:14;99492.28;;;4.00;85.42
70445;BME280;57902;49.638;11.070;2023-02-15T12:52:46;99488.97;;;4.04;85.34
70445;BME280;57902;49.638;11.070;2023-02-15T12:55:23;99481.28;;;4.02;85.17
70445;BME280;57902;49.638;11.070;2023-02-15T13:00:45;99472.00;;;4.08;84.95
70445;BME280;57902;49.638;11.070;2023-02-15T13:03:20;99477.91;;;4.05;83.97
70445;BME280;57902;49.638;11.070;2023-02-15T13:05:50;99474.59;;;4.12;83.73
70445;BME280;57902;49.638;11.070;2023-02-15T13:08:28;99466.94;;;4.11;84.28
70445;BME280;57902;49.638;11.070;2023-02-15T13:11:02;99466.03;;;4.07;84.15
70445;BME280;57902;49.638;11.070;2023-02-15T13:13:33;99466.03;;;4.06;84.34
70445;BME280;57902;49.638;11.070;2023-02-15T13:16:06;99465.16;;;4.07;84.97
70445;BME280;57902;49.638;11.070;2023-02-15T13:18:38;99459.34;;;4.15;85.56
70445;BME280;57902;49.638;11.070;2023-02-15T13:21:12;99458.59;;;4.21;84.99
70445;BME280;57902;49.638;11.070;2023-02-15T13:23:44;99457.81;;;4.27;83.72
70445;BME280;57902;49.638;11.070;2023-02-15T13:26:16;99459.59;;;4.31;83.53
70445;BME280;57902;49.638;11.070;2023-02-15T13:28:58;99455.38;;;4.36;83.35
70445;BME280;57902;49.638;11.070;2023-02-15T13:31:29;99460.66;;;4.47;83.15
70445;BME280;57902;49.638;11.070;2023-02-15T13:34:05;99455.66;;;4.54;82.25
70445;BME280;57902;49.638;11.070;2023-02-15T13:37:00;99457.47;;;4.63;81.89
70445;BME280;57902;49.638;11.070;2023-02-15T13:39:40;99449.91;;;4.71;81.29
70445;BME280;57902;49.638;11.070;2023-02-15T13:48:56;99458.41;;;4.68;82.08
70445;BME280;57902;49.638;11.070;2023-02-15T13:51:48;99456.75;;;4.72;81.47
70445;BME280;57902;49.638;11.070;2023-02-15T14:05:57;99452.25;;;4.54;81.56
70445;BME280;57902;49.638;11.070;2023-02-15T14:08:37;99450.56;;;4.54;82.13
70445;BME280;57902;49.638;11.070;2023-02-15T14:16:51;99453.72;;;4.36;83.12
70445;BME280;57902;49.638;11.070;2023-02-15T14:19:40;99446.06;;;4.36;83.47
70445;BME280;57902;49.638;11.070;2023-02-15T14:25:25;99444.44;;;4.43;83.04
70445;BME280;57902;49.638;11.070;2023-02-15T14:28:13;99444.44;;;4.43;82.68
70445;BME280;57902;49.638;11.070;2023-02-15T14:30:46;99446.97;;;4.42;82.61
70445;BME280;57902;49.638;11.070;2023-02-15T14:35:42;99438.28;;;4.29;83.35
70445;BME280;57902;49.638;11.070;2023-02-15T14:44:08;99438.22;;;4.26;84.48
70445;BME280;57902;49.638;11.070;2023-02-15T14:49:17;99437.41;;;4.27;84.10
70445;BME280;57902;49.638;11.070;2023-02-15T14:56:46;99427.81;;;4.10;85.27
70445;BME280;57902;49.638;11.070;2023-02-15T14:59:55;99427.81;;;4.10;84.86
70445;BME280;57902;49.638;11.070;2023-02-15T15:02:45;99420.97;;;4.08;85.12
70445;BME280;57902;49.638;11.070;2023-02-15T15:05:21;99426.94;;;4.08;85.43
70445;BME280;57902;49.638;11.070;2023-02-15T15:07:54;99427.75;;;4.06;85.53
70445;BME280;57902;49.638;11.070;2023-02-15T15:12:52;99426.06;;;4.08;85.73
70445;BME280;57902;49.638;11.070;2023-02-15T15:18:04;99417.50;;;4.02;85.64
70445;BME280;57902;49.638;11.070;2023-02-15T15:20:48;99423.19;;;3.88;86.30
70445;BME280;57902;49.638;11.070;2023-02-15T15:26:21;99419.69;;;3.79;86.72
70445;BME280;57902;49.638;11.070;2023-02-15T15:34:27;99420.34;;;3.67;88.14
70445;BME280;57902;49.638;11.070;2023-02-15T15:37:30;99423.66;;;3.63;88.40
70445;BME280;57902;49.638;11.070;2023-02-15T15:40:21;99420.22;;;3.60;89.42
70445;BME280;57902;49.638;11.070;2023-02-15T15:43:31;99420.97;;;3.54;89.31
70445;BME280;57902;49.638;11.070;2023-02-15T15:46:42;99418.38;;;3.51;89.46
70445;BME280;57902;49.638;11.070;2023-02-15T15:49:15;99421.59;;;3.41;89.98